createdAt,value
2016-09-18T00:00:16.394Z,0
2016-09-18T00:01:16.133Z,0
2016-09-18T00:02:15.400Z,0
2016-09-18T00:03:15.913Z,0
2016-09-18T00:04:17.551Z,0
2016-09-18T00:05:16.461Z,0
2016-09-18T00:06:15.989Z,0
2016-09-18T00:07:15.886Z,0
2016-09-18T00:08:16.426Z,0
2016-09-18T00:09:15.784Z,0
2016-09-18T00:10:15.434Z,0
2016-09-18T00:11:15.868Z,0
2016-09-18T00:12:15.331Z,0
2016-09-18T00:13:16.230Z,0
2016-09-18T00:14:16.028Z,0
2016-09-18T00:15:16.027Z,0
2016-09-18T00:16:15.643Z,0
2016-09-18T00:17:15.394Z,0
2016-09-18T00:18:15.055Z,0
2016-09-18T00:19:15.057Z,0
2016-09-18T00:20:14.950Z,0
2016-09-18T00:21:15.271Z,0
2016-09-18T00:22:15.076Z,0
2016-09-18T00:23:14.825Z,0
2016-09-18T00:24:15.079Z,0
2016-09-18T00:25:15.046Z,0
2016-09-18T00:26:14.674Z,0
2016-09-18T00:27:14.942Z,0
2016-09-18T00:28:15.094Z,0
2016-09-18T00:29:14.552Z,0
2016-09-18T00:30:14.812Z,0
2016-09-18T00:31:14.441Z,0
2016-09-18T00:32:14.764Z,0
2016-09-18T00:33:14.054Z,0
2016-09-18T00:34:14.970Z,0
2016-09-18T00:35:15.124Z,0
2016-09-18T00:36:14.201Z,0
2016-09-18T00:37:13.604Z,0
2016-09-18T00:38:14.186Z,0
2016-09-18T00:39:14.397Z,0
2016-09-18T00:40:14.236Z,0
2016-09-18T00:41:14.308Z,0
2016-09-18T00:42:13.628Z,0
2016-09-18T00:43:14.099Z,0
2016-09-18T00:44:14.155Z,0
2016-09-18T00:45:14.099Z,0
2016-09-18T00:46:13.473Z,0
2016-09-18T00:47:13.402Z,0
2016-09-18T00:48:13.968Z,0
2016-09-18T00:49:14.109Z,0
2016-09-18T00:50:14.094Z,0
2016-09-18T00:51:13.561Z,0
2016-09-18T00:52:14.042Z,0
2016-09-18T00:53:13.956Z,0
2016-09-18T00:54:13.385Z,0
2016-09-18T00:55:13.363Z,0
2016-09-18T00:56:13.362Z,0
2016-09-18T00:57:13.741Z,0
2016-09-18T00:58:13.522Z,0
2016-09-18T00:59:13.462Z,0
2016-09-18T01:00:13.318Z,0
2016-09-18T01:01:13.395Z,0
2016-09-18T01:02:12.917Z,0
2016-09-18T01:03:12.986Z,0
2016-09-18T01:04:13.173Z,0
2016-09-18T01:05:12.584Z,0
2016-09-18T01:06:13.369Z,0
2016-09-18T01:07:12.807Z,0
2016-09-18T01:08:13.102Z,0
2016-09-18T01:09:13.217Z,0
2016-09-18T01:10:12.326Z,0
2016-09-18T01:11:13.132Z,0
2016-09-18T01:12:12.874Z,0
2016-09-18T01:13:12.515Z,0
2016-09-18T01:14:12.661Z,0
2016-09-18T01:15:12.419Z,0
2016-09-18T01:16:12.371Z,0
2016-09-18T01:17:12.690Z,0
2016-09-18T01:18:12.790Z,0
2016-09-18T01:19:12.542Z,0
2016-09-18T01:20:12.493Z,0
2016-09-18T01:21:12.452Z,0
2016-09-18T01:22:12.421Z,0
2016-09-18T01:23:12.345Z,0
2016-09-18T01:24:12.349Z,0
2016-09-18T01:25:12.260Z,0
2016-09-18T01:26:12.217Z,0
2016-09-18T01:27:12.166Z,0
2016-09-18T01:28:12.125Z,0
2016-09-18T01:29:11.468Z,0
2016-09-18T01:30:11.698Z,0
2016-09-18T01:31:12.011Z,0
2016-09-18T01:32:11.953Z,0
2016-09-18T01:33:11.599Z,0
2016-09-18T01:34:11.256Z,0
2016-09-18T01:35:11.528Z,0
2016-09-18T01:36:11.439Z,0
2016-09-18T01:37:11.301Z,0
2016-09-18T01:38:11.364Z,0
2016-09-18T01:39:11.311Z,0
2016-09-18T01:40:11.562Z,0
2016-09-18T01:41:10.924Z,0
2016-09-18T01:42:10.583Z,0
2016-09-18T01:43:11.524Z,0
2016-09-18T01:44:11.070Z,0
2016-09-18T01:45:11.348Z,0
2016-09-18T01:46:10.978Z,0
2016-09-18T01:47:11.232Z,0
2016-09-18T01:48:11.202Z,0
2016-09-18T01:49:11.173Z,0
2016-09-18T01:50:11.136Z,0
2016-09-18T01:51:11.056Z,0
2016-09-18T01:52:10.910Z,0
2016-09-18T01:53:10.690Z,0
2016-09-18T01:54:10.928Z,0
2016-09-18T01:55:10.884Z,0
2016-09-18T01:56:10.837Z,0
2016-09-18T01:57:10.468Z,0
2016-09-18T01:58:10.531Z,0
2016-09-18T01:59:10.389Z,0
2016-09-18T02:00:10.650Z,0
2016-09-18T02:01:10.593Z,0
2016-09-18T02:02:10.559Z,0
2016-09-18T02:03:10.699Z,0
2016-09-18T02:04:10.182Z,0
2016-09-18T02:05:10.421Z,0
2016-09-18T02:06:10.371Z,0
2016-09-18T02:07:10.014Z,0
2016-09-18T02:08:10.283Z,0
2016-09-18T02:09:09.679Z,0
2016-09-18T02:10:10.378Z,0
2016-09-18T02:11:10.267Z,0
2016-09-18T02:12:10.099Z,0
2016-09-18T02:13:09.924Z,0
2016-09-18T02:14:09.996Z,0
2016-09-18T02:15:09.946Z,0
2016-09-18T02:16:09.285Z,0
2016-09-18T02:17:09.743Z,0
2016-09-18T02:18:09.712Z,0
2016-09-18T02:19:09.187Z,0
2016-09-18T02:20:09.932Z,0
2016-09-18T02:21:09.568Z,0
2016-09-18T02:22:09.339Z,0
2016-09-18T02:23:09.318Z,0
2016-09-18T02:24:09.262Z,0
2016-09-18T02:25:09.396Z,0
2016-09-18T02:26:09.639Z,0
2016-09-18T02:27:09.104Z,0
2016-09-18T02:28:09.417Z,0
2016-09-18T02:29:09.711Z,0
2016-09-18T02:30:09.286Z,0
2016-09-18T02:31:09.268Z,0
2016-09-18T02:32:09.052Z,0
2016-09-18T02:33:08.838Z,0
2016-09-18T02:34:09.066Z,0
2016-09-18T02:35:09.087Z,0
2016-09-18T02:36:09.195Z,0
2016-09-18T02:37:08.818Z,0
2016-09-18T02:38:08.862Z,0
2016-09-18T02:39:08.521Z,0
2016-09-18T02:40:08.478Z,0
2016-09-18T02:41:08.447Z,0
2016-09-18T02:42:08.578Z,0
2016-09-18T02:43:08.866Z,0
2016-09-18T02:44:08.326Z,0
2016-09-18T02:45:08.281Z,0
2016-09-18T02:46:08.402Z,0
2016-09-18T02:47:08.458Z,0
2016-09-18T02:48:08.727Z,0
2016-09-18T02:49:08.770Z,0
2016-09-18T02:50:08.207Z,0
2016-09-18T02:51:08.485Z,0
2016-09-18T02:52:07.916Z,0
2016-09-18T02:53:08.170Z,0
2016-09-18T02:54:08.022Z,0
2016-09-18T02:55:08.092Z,0
2016-09-18T02:56:08.033Z,0
2016-09-18T02:57:07.979Z,0
2016-09-18T02:58:08.001Z,0
2016-09-18T02:59:07.897Z,0
2016-09-18T03:00:07.747Z,0
2016-09-18T03:01:07.490Z,0
2016-09-18T03:02:07.344Z,0
2016-09-18T03:03:07.726Z,0
2016-09-18T03:04:07.870Z,0
2016-09-18T03:05:07.890Z,0
2016-09-18T03:06:09.077Z,0
2016-09-18T03:07:07.124Z,0
2016-09-18T03:08:07.472Z,0
2016-09-18T03:09:07.638Z,0
2016-09-18T03:10:07.619Z,0
2016-09-18T03:11:07.036Z,0
2016-09-18T03:12:07.385Z,0
2016-09-18T03:13:06.930Z,0
2016-09-18T03:14:07.091Z,0
2016-09-18T03:15:07.150Z,0
2016-09-18T03:16:07.094Z,0
2016-09-18T03:17:06.747Z,0
2016-09-18T03:18:07.165Z,0
2016-09-18T03:19:06.665Z,0
2016-09-18T03:20:06.902Z,0
2016-09-18T03:21:06.248Z,0
2016-09-18T03:22:06.199Z,0
2016-09-18T03:23:06.164Z,0
2016-09-18T03:24:06.417Z,0
2016-09-18T03:25:06.708Z,0
2016-09-18T03:26:06.637Z,0
2016-09-18T03:27:06.597Z,0
2016-09-18T03:28:05.942Z,0
2016-09-18T03:29:06.487Z,0
2016-09-18T03:30:06.347Z,0
2016-09-18T03:31:06.080Z,0
2016-09-18T03:32:06.362Z,0
2016-09-18T03:33:06.013Z,0
2016-09-18T03:34:05.971Z,0
2016-09-18T03:35:06.621Z,0
2016-09-18T03:36:06.182Z,0
2016-09-18T03:37:06.037Z,0
2016-09-18T03:38:05.976Z,0
2016-09-18T03:39:06.652Z,0
2016-09-18T03:40:05.683Z,0
2016-09-18T03:41:06.205Z,0
2016-09-18T03:42:05.928Z,0
2016-09-18T03:43:05.852Z,0
2016-09-18T03:44:05.780Z,0
2016-09-18T03:45:06.157Z,0
2016-09-18T03:46:05.698Z,0
2016-09-18T03:47:05.646Z,0
2016-09-18T03:48:05.056Z,0
2016-09-18T03:49:05.263Z,0
2016-09-18T03:50:05.392Z,0
2016-09-18T03:51:05.452Z,0
2016-09-18T03:52:05.167Z,0
2016-09-18T03:53:05.382Z,0
2016-09-18T03:54:05.005Z,0
2016-09-18T03:55:04.910Z,0
2016-09-18T03:56:05.247Z,0
2016-09-18T03:57:05.084Z,0
2016-09-18T03:58:04.824Z,0
2016-09-18T03:59:04.786Z,0
2016-09-18T04:00:04.648Z,0
2016-09-18T04:01:04.692Z,0
2016-09-18T04:02:04.340Z,0
2016-09-18T04:03:04.794Z,0
2016-09-18T04:04:05.455Z,0
2016-09-18T04:05:04.799Z,0
2016-09-18T04:06:04.770Z,0
2016-09-18T04:07:04.620Z,0
2016-09-18T04:08:04.664Z,0
2016-09-18T04:09:04.812Z,0
2016-09-18T04:10:04.271Z,0
2016-09-18T04:11:04.721Z,0
2016-09-18T04:12:04.489Z,0
2016-09-18T04:13:03.726Z,0
2016-09-18T04:14:04.605Z,0
2016-09-18T04:15:04.357Z,0
2016-09-18T04:16:03.993Z,0
2016-09-18T04:17:04.154Z,0
2016-09-18T04:18:04.216Z,0
2016-09-18T04:19:04.362Z,0
2016-09-18T04:20:03.696Z,0
2016-09-18T04:21:03.967Z,0
2016-09-18T04:22:03.110Z,0
2016-09-18T04:23:03.929Z,0
2016-09-18T04:24:04.304Z,0
2016-09-18T04:25:03.867Z,0
2016-09-18T04:26:03.823Z,0
2016-09-18T04:27:03.786Z,0
2016-09-18T04:28:03.934Z,0
2016-09-18T04:29:04.090Z,0
2016-09-18T04:30:03.527Z,0
2016-09-18T04:31:03.484Z,0
2016-09-18T04:32:03.548Z,0
2016-09-18T04:33:03.728Z,0
2016-09-18T04:34:02.833Z,0
2016-09-18T04:35:03.598Z,0
2016-09-18T04:36:03.411Z,0
2016-09-18T04:37:03.004Z,0
2016-09-18T04:38:03.250Z,0
2016-09-18T04:39:03.101Z,0
2016-09-18T04:40:02.851Z,0
2016-09-18T04:41:02.709Z,0
2016-09-18T04:42:03.078Z,0
2016-09-18T04:43:02.713Z,0
2016-09-18T04:44:02.676Z,0
2016-09-18T04:45:02.931Z,0
2016-09-18T04:46:02.974Z,0
2016-09-18T04:47:04.652Z,0
2016-09-18T04:48:05.431Z,0
2016-09-18T04:49:02.435Z,0
2016-09-18T04:50:02.727Z,0
2016-09-18T04:51:02.355Z,0
2016-09-18T04:52:02.808Z,0
2016-09-18T04:53:02.577Z,0
2016-09-18T04:54:03.107Z,0
2016-09-18T04:55:02.153Z,0
2016-09-18T04:56:02.523Z,0
2016-09-18T04:57:02.081Z,0
2016-09-18T04:58:02.522Z,0
2016-09-18T04:59:02.157Z,0
2016-09-18T05:00:01.922Z,0
2016-09-18T05:01:02.076Z,0
2016-09-18T05:02:01.837Z,4
2016-09-18T05:03:01.801Z,4
2016-09-18T05:04:01.713Z,4
2016-09-18T05:05:01.785Z,4
2016-09-18T05:06:02.162Z,0
2016-09-18T05:07:02.173Z,4
2016-09-18T05:08:01.545Z,4
2016-09-18T05:09:01.727Z,4
2016-09-18T05:10:01.941Z,4
2016-09-18T05:11:01.714Z,4
2016-09-18T05:12:01.759Z,4
2016-09-18T05:13:01.704Z,4
2016-09-18T05:14:01.441Z,8
2016-09-18T05:15:01.122Z,8
2016-09-18T05:16:04.625Z,4
2016-09-18T05:17:01.311Z,4
2016-09-18T05:18:01.366Z,8
2016-09-18T05:19:01.739Z,8
2016-09-18T05:20:01.507Z,8
2016-09-18T05:21:01.486Z,8
2016-09-18T05:22:01.249Z,12
2016-09-18T05:23:01.162Z,12
2016-09-18T05:24:24.217Z,12
2016-09-18T05:25:01.041Z,12
2016-09-18T05:26:01.179Z,12
2016-09-18T05:27:01.348Z,12
2016-09-18T05:28:00.895Z,16
2016-09-18T05:29:00.879Z,12
2016-09-18T05:30:00.687Z,12
2016-09-18T05:31:00.949Z,16
2016-09-18T05:32:00.083Z,16
2016-09-18T05:33:00.544Z,16
2016-09-18T05:34:00.515Z,20
2016-09-18T05:35:00.248Z,20
2016-09-18T05:36:00.526Z,20
2016-09-18T05:37:00.494Z,24
2016-09-18T05:37:59.808Z,24
2016-09-18T05:38:59.767Z,28
2016-09-18T05:40:01.700Z,32
2016-09-18T05:41:00.471Z,36
2016-09-18T05:42:00.435Z,36
2016-09-18T05:42:59.870Z,36
2016-09-18T05:44:00.552Z,40
2016-09-18T05:45:00.332Z,44
2016-09-18T05:46:00.257Z,48
2016-09-18T05:46:59.565Z,60
2016-09-18T05:47:59.640Z,60
2016-09-18T05:49:00.096Z,52
2016-09-18T05:50:00.279Z,60
2016-09-18T05:51:00.042Z,68
2016-09-18T05:51:59.788Z,84
2016-09-18T05:52:59.903Z,96
2016-09-18T05:53:59.048Z,96
2016-09-18T05:54:59.625Z,104
2016-09-18T05:55:59.569Z,136
2016-09-18T05:56:59.224Z,156
2016-09-18T05:57:59.218Z,176
2016-09-18T05:58:59.122Z,172
2016-09-18T05:59:59.381Z,180
2016-09-18T06:00:58.854Z,188
2016-09-18T06:01:59.491Z,204
2016-09-18T06:02:58.928Z,216
2016-09-18T06:03:59.781Z,220
2016-09-18T06:04:59.167Z,208
2016-09-18T06:05:59.328Z,208
2016-09-18T06:06:59.066Z,212
2016-09-18T06:07:58.594Z,224
2016-09-18T06:08:58.956Z,260
2016-09-18T06:09:58.914Z,300
2016-09-18T06:10:58.840Z,340
2016-09-18T06:11:58.996Z,356
2016-09-18T06:12:59.161Z,368
2016-09-18T06:13:58.610Z,388
2016-09-18T06:14:58.879Z,388
2016-09-18T06:15:58.508Z,380
2016-09-18T06:16:57.646Z,368
2016-09-18T06:17:58.543Z,352
2016-09-18T06:18:58.880Z,344
2016-09-18T06:19:58.192Z,348
2016-09-18T06:20:58.380Z,364
2016-09-18T06:21:58.131Z,392
2016-09-18T06:22:57.879Z,432
2016-09-18T06:23:58.452Z,464
2016-09-18T06:24:57.810Z,472
2016-09-18T06:25:58.361Z,460
2016-09-18T06:26:58.086Z,420
2016-09-18T06:27:58.060Z,396
2016-09-18T06:28:58.009Z,416
2016-09-18T06:29:57.652Z,456
2016-09-18T06:30:57.912Z,496
2016-09-18T06:31:57.869Z,568
2016-09-18T06:32:57.529Z,652
2016-09-18T06:33:57.458Z,656
2016-09-18T06:34:57.417Z,624
2016-09-18T06:35:57.048Z,672
2016-09-18T06:36:57.842Z,708
2016-09-18T06:37:57.331Z,684
2016-09-18T06:38:57.752Z,636
2016-09-18T06:39:57.189Z,528
2016-09-18T06:40:57.419Z,476
2016-09-18T06:41:57.386Z,452
2016-09-18T06:42:57.242Z,440
2016-09-18T06:43:57.322Z,480
2016-09-18T06:44:57.252Z,536
2016-09-18T06:45:57.196Z,544
2016-09-18T06:46:57.432Z,492
2016-09-18T06:47:56.506Z,428
2016-09-18T06:48:57.072Z,392
2016-09-18T06:49:57.022Z,404
2016-09-18T06:50:57.040Z,436
2016-09-18T06:51:57.120Z,420
2016-09-18T06:52:56.891Z,376
2016-09-18T06:53:56.518Z,368
2016-09-18T06:54:56.822Z,372
2016-09-18T06:55:56.420Z,388
2016-09-18T06:56:56.914Z,416
2016-09-18T06:57:56.329Z,444
2016-09-18T06:58:56.309Z,476
2016-09-18T06:59:55.929Z,456
2016-09-18T07:00:56.187Z,436
2016-09-18T07:01:55.845Z,416
2016-09-18T07:02:56.117Z,416
2016-09-18T07:03:56.586Z,368
2016-09-18T07:04:56.004Z,340
2016-09-18T07:05:56.876Z,420
2016-09-18T07:06:56.224Z,452
2016-09-18T07:07:55.900Z,416
2016-09-18T07:08:55.819Z,388
2016-09-18T07:09:56.049Z,420
2016-09-18T07:10:55.734Z,420
2016-09-18T07:11:55.468Z,412
2016-09-18T07:12:55.928Z,424
2016-09-18T07:13:55.878Z,404
2016-09-18T07:14:58.551Z,392
2016-09-18T07:16:10.125Z,404
2016-09-18T07:16:55.129Z,392
2016-09-18T07:17:55.738Z,364
2016-09-18T07:18:55.093Z,384
2016-09-18T07:19:55.616Z,376
2016-09-18T07:20:55.567Z,348
2016-09-18T07:21:55.536Z,324
2016-09-18T07:22:55.693Z,308
2016-09-18T07:23:55.432Z,324
2016-09-18T07:24:55.270Z,324
2016-09-18T07:25:55.961Z,328
2016-09-18T07:26:55.249Z,364
2016-09-18T07:27:55.236Z,392
2016-09-18T07:28:55.217Z,424
2016-09-18T07:29:55.346Z,444
2016-09-18T07:30:54.867Z,432
2016-09-18T07:31:55.140Z,400
2016-09-18T07:32:54.715Z,404
2016-09-18T07:33:55.363Z,420
2016-09-18T07:34:54.901Z,404
2016-09-18T07:35:55.054Z,400
2016-09-18T07:36:54.847Z,384
2016-09-18T07:37:54.821Z,364
2016-09-18T07:38:54.425Z,344
2016-09-18T07:39:54.357Z,340
2016-09-18T07:40:54.627Z,344
2016-09-18T07:41:54.284Z,336
2016-09-18T07:42:54.213Z,332
2016-09-18T07:43:57.118Z,324
2016-09-18T07:44:54.861Z,332
2016-09-18T07:45:54.399Z,332
2016-09-18T07:46:54.041Z,328
2016-09-18T07:47:53.989Z,328
2016-09-18T07:48:54.298Z,328
2016-09-18T07:49:54.208Z,336
2016-09-18T07:50:54.184Z,352
2016-09-18T07:51:53.492Z,372
2016-09-18T07:52:54.295Z,372
2016-09-18T07:53:54.216Z,360
2016-09-18T07:54:53.648Z,340
2016-09-18T07:55:53.921Z,344
2016-09-18T07:56:53.777Z,344
2016-09-18T07:57:53.510Z,340
2016-09-18T07:58:53.088Z,344
2016-09-18T07:59:53.415Z,392
2016-09-18T08:00:53.386Z,452
2016-09-18T08:01:53.834Z,472
2016-09-18T08:02:53.292Z,440
2016-09-18T08:03:53.736Z,428
2016-09-18T08:04:53.715Z,404
2016-09-18T08:05:53.664Z,372
2016-09-18T08:06:53.650Z,348
2016-09-18T08:07:53.358Z,312
2016-09-18T08:08:53.065Z,272
2016-09-18T08:09:53.255Z,256
2016-09-18T08:10:53.409Z,268
2016-09-18T08:11:53.163Z,284
2016-09-18T08:12:53.002Z,304
2016-09-18T08:13:53.070Z,344
2016-09-18T08:14:53.039Z,364
2016-09-18T08:15:52.966Z,344
2016-09-18T08:16:52.663Z,340
2016-09-18T08:17:52.875Z,340
2016-09-18T08:18:52.315Z,348
2016-09-18T08:19:52.173Z,312
2016-09-18T08:20:52.721Z,264
2016-09-18T08:21:52.584Z,260
2016-09-18T08:22:52.730Z,292
2016-09-18T08:23:52.610Z,356
2016-09-18T08:24:52.568Z,388
2016-09-18T08:25:52.694Z,388
2016-09-18T08:26:52.144Z,444
2016-09-18T08:27:51.497Z,456
2016-09-18T08:28:52.358Z,364
2016-09-18T08:29:52.514Z,328
2016-09-18T08:30:52.256Z,376
2016-09-18T08:31:52.239Z,492
2016-09-18T08:32:52.190Z,572
2016-09-18T08:33:51.849Z,584
2016-09-18T08:34:52.078Z,552
2016-09-18T08:35:51.776Z,520
2016-09-18T08:36:51.667Z,448
2016-09-18T08:37:51.939Z,440
2016-09-18T08:38:52.106Z,420
2016-09-18T08:39:51.856Z,384
2016-09-18T08:40:51.493Z,408
2016-09-18T08:41:51.488Z,424
2016-09-18T08:42:51.181Z,444
2016-09-18T08:43:51.709Z,532
2016-09-18T08:44:52.255Z,764
2016-09-18T08:45:54.906Z,1004
2016-09-18T08:46:51.527Z,1080
2016-09-18T08:47:51.179Z,1072
2016-09-18T08:48:51.462Z,1040
2016-09-18T08:49:51.278Z,1056
2016-09-18T08:50:51.354Z,1056
2016-09-18T08:51:50.990Z,1040
2016-09-18T08:52:50.928Z,1036
2016-09-18T08:53:51.211Z,984
2016-09-18T08:54:53.612Z,868
2016-09-18T08:55:51.864Z,756
2016-09-18T08:56:51.284Z,792
2016-09-18T08:57:50.890Z,956
2016-09-18T08:58:50.986Z,984
2016-09-18T08:59:50.810Z,912
2016-09-18T09:00:50.853Z,848
2016-09-18T09:01:50.798Z,940
2016-09-18T09:02:50.769Z,1232
2016-09-18T09:03:50.718Z,1404
2016-09-18T09:04:50.687Z,1384
2016-09-18T09:05:50.623Z,1404
2016-09-18T09:06:50.788Z,1388
2016-09-18T09:07:50.229Z,1304
2016-09-18T09:08:50.491Z,1308
2016-09-18T09:09:50.643Z,1316
2016-09-18T09:10:50.398Z,1232
2016-09-18T09:11:50.361Z,1236
2016-09-18T09:12:50.304Z,1212
2016-09-18T09:13:50.249Z,1220
2016-09-18T09:14:50.094Z,1256
2016-09-18T09:15:49.867Z,1236
2016-09-18T09:16:49.799Z,1128
2016-09-18T09:17:50.312Z,1084
2016-09-18T09:18:49.942Z,1184
2016-09-18T09:19:50.192Z,1404
2016-09-18T09:20:49.989Z,1432
2016-09-18T09:21:49.797Z,1360
2016-09-18T09:22:49.821Z,1280
2016-09-18T09:23:49.670Z,1136
2016-09-18T09:24:49.634Z,1072
2016-09-18T09:25:49.413Z,1224
2016-09-18T09:26:49.370Z,1504
2016-09-18T09:27:49.609Z,1532
2016-09-18T09:28:49.563Z,1504
2016-09-18T09:29:49.189Z,1492
2016-09-18T09:30:49.462Z,1416
2016-09-18T09:31:49.486Z,1244
2016-09-18T09:32:49.251Z,1100
2016-09-18T09:33:49.420Z,1044
2016-09-18T09:34:49.373Z,1016
2016-09-18T09:35:49.451Z,980
2016-09-18T09:36:48.882Z,940
2016-09-18T09:37:48.845Z,960
2016-09-18T09:38:48.879Z,972
2016-09-18T09:39:49.226Z,948
2016-09-18T09:40:48.376Z,876
2016-09-18T09:41:48.957Z,836
2016-09-18T09:42:49.091Z,820
2016-09-18T09:43:48.262Z,784
2016-09-18T09:44:48.707Z,744
2016-09-18T09:45:48.448Z,724
2016-09-18T09:46:48.900Z,700
2016-09-18T09:47:48.689Z,708
2016-09-18T09:48:48.635Z,704
2016-09-18T09:49:48.265Z,680
2016-09-18T09:50:48.523Z,696
2016-09-18T09:51:48.485Z,740
2016-09-18T09:52:48.428Z,768
2016-09-18T09:53:48.098Z,744
2016-09-18T09:54:48.393Z,740
2016-09-18T09:55:48.282Z,736
2016-09-18T09:56:47.939Z,708
2016-09-18T09:57:47.789Z,648
2016-09-18T09:58:48.355Z,620
2016-09-18T09:59:48.106Z,612
2016-09-18T10:00:48.065Z,640
2016-09-18T10:01:47.396Z,764
2016-09-18T10:02:47.962Z,912
2016-09-18T10:03:47.608Z,1076
2016-09-18T10:04:47.869Z,1184
2016-09-18T10:05:47.835Z,1204
2016-09-18T10:06:47.870Z,1208
2016-09-18T10:07:47.773Z,1180
2016-09-18T10:08:47.378Z,1156
2016-09-18T10:09:47.035Z,1128
2016-09-18T10:10:47.298Z,1144
2016-09-18T10:11:47.501Z,1168
2016-09-18T10:12:47.546Z,1184
2016-09-18T10:13:47.239Z,1156
2016-09-18T10:14:47.421Z,1168
2016-09-18T10:15:47.047Z,1088
2016-09-18T10:16:47.013Z,996
2016-09-18T10:17:47.272Z,940
2016-09-18T10:18:47.642Z,896
2016-09-18T10:19:47.105Z,868
2016-09-18T10:20:46.908Z,860
2016-09-18T10:21:46.491Z,828
2016-09-18T10:22:47.281Z,824
2016-09-18T10:23:46.994Z,828
2016-09-18T10:24:46.980Z,756
2016-09-18T10:25:46.618Z,712
2016-09-18T10:26:46.837Z,768
2016-09-18T10:27:46.808Z,868
2016-09-18T10:28:46.473Z,960
2016-09-18T10:29:46.730Z,1024
2016-09-18T10:30:46.685Z,1052
2016-09-18T10:31:47.052Z,1164
2016-09-18T10:32:46.988Z,1208
2016-09-18T10:33:45.960Z,1192
2016-09-18T10:34:45.858Z,1172
2016-09-18T10:35:46.118Z,1356
2016-09-18T10:36:46.394Z,1408
2016-09-18T10:37:46.592Z,1348
2016-09-18T10:38:45.713Z,1296
2016-09-18T10:39:46.272Z,1212
2016-09-18T10:40:45.907Z,1180
2016-09-18T10:41:45.849Z,1160
2016-09-18T10:42:45.503Z,1168
2016-09-18T10:43:45.788Z,1144
2016-09-18T10:44:46.019Z,1120
2016-09-18T10:45:45.856Z,1108
2016-09-18T10:46:45.942Z,1076
2016-09-18T10:47:46.320Z,1100
2016-09-18T10:48:45.854Z,1120
2016-09-18T10:49:45.520Z,1124
2016-09-18T10:50:45.806Z,1124
2016-09-18T10:51:45.919Z,1144
2016-09-18T10:52:45.680Z,1184
2016-09-18T10:53:45.280Z,1228
2016-09-18T10:54:45.292Z,1264
2016-09-18T10:55:45.921Z,1224
2016-09-18T10:56:45.455Z,1168
2016-09-18T10:57:44.874Z,1140
2016-09-18T10:58:45.053Z,1184
2016-09-18T10:59:45.329Z,1252
2016-09-18T11:00:44.979Z,1232
2016-09-18T11:01:45.120Z,1220
2016-09-18T11:02:45.265Z,1248
2016-09-18T11:03:45.051Z,1264
2016-09-18T11:04:44.681Z,1280
2016-09-18T11:05:44.149Z,1324
2016-09-18T11:06:44.892Z,1460
2016-09-18T11:07:44.659Z,1648
2016-09-18T11:08:44.891Z,1772
2016-09-18T11:09:44.638Z,1844
2016-09-18T11:10:44.815Z,1764
2016-09-18T11:11:44.782Z,1692
2016-09-18T11:12:44.914Z,1612
2016-09-18T11:13:44.865Z,1544
2016-09-18T11:14:44.636Z,1452
2016-09-18T11:15:44.772Z,1332
2016-09-18T11:16:44.221Z,1180
2016-09-18T11:17:44.687Z,1056
2016-09-18T11:18:44.119Z,1020
2016-09-18T11:19:44.590Z,1152
2016-09-18T11:20:44.560Z,1388
2016-09-18T11:21:44.487Z,1632
2016-09-18T11:22:44.139Z,1688
2016-09-18T11:23:43.895Z,1480
2016-09-18T11:24:44.385Z,1456
2016-09-18T11:25:44.171Z,1620
2016-09-18T11:26:44.567Z,1828
2016-09-18T11:27:43.711Z,1888
2016-09-18T11:28:43.758Z,2000
2016-09-18T11:29:44.108Z,2212
2016-09-18T11:30:43.988Z,2176
2016-09-18T11:31:44.045Z,1804
2016-09-18T11:32:43.884Z,1524
2016-09-18T11:33:43.731Z,1564
2016-09-18T11:34:43.712Z,1780
2016-09-18T11:35:43.665Z,1928
2016-09-18T11:36:43.851Z,1920
2016-09-18T11:37:43.259Z,1864
2016-09-18T11:38:44.137Z,1752
2016-09-18T11:39:43.672Z,1632
2016-09-18T11:40:43.415Z,1520
2016-09-18T11:41:43.395Z,1484
2016-09-18T11:42:43.361Z,1604
2016-09-18T11:43:43.313Z,1840
2016-09-18T11:44:43.770Z,2148
2016-09-18T11:45:43.080Z,2456
2016-09-18T11:46:43.024Z,2816
2016-09-18T11:47:43.508Z,2884
2016-09-18T11:48:42.935Z,2860
2016-09-18T11:49:43.235Z,2520
2016-09-18T11:50:42.965Z,2440
2016-09-18T11:51:42.687Z,2704
2016-09-18T11:52:42.564Z,2556
2016-09-18T11:53:42.509Z,3168
2016-09-18T11:54:42.710Z,3924
2016-09-18T11:55:42.933Z,2764
2016-09-18T11:56:42.379Z,2780
2016-09-18T11:57:42.957Z,2972
2016-09-18T11:58:42.287Z,3148
2016-09-18T11:59:42.442Z,3164
2016-09-18T12:00:42.915Z,2912
2016-09-18T12:01:42.922Z,2492
2016-09-18T12:02:42.482Z,2200
2016-09-18T12:03:42.367Z,1924
2016-09-18T12:04:42.073Z,1884
2016-09-18T12:05:41.860Z,1980
2016-09-18T12:06:42.217Z,2140
2016-09-18T12:07:42.579Z,2292
2016-09-18T12:08:42.125Z,2440
2016-09-18T12:09:41.483Z,2500
2016-09-18T12:10:41.934Z,2608
2016-09-18T12:11:41.712Z,2728
2016-09-18T12:12:41.980Z,2840
2016-09-18T12:13:42.303Z,4128
2016-09-18T12:14:41.851Z,2708
2016-09-18T12:15:41.727Z,3008
2016-09-18T12:16:41.467Z,2704
2016-09-18T12:17:41.468Z,2644
2016-09-18T12:18:41.570Z,2544
2016-09-18T12:19:41.524Z,2432
2016-09-18T12:20:41.504Z,2500
2016-09-18T12:21:42.444Z,2604
2016-09-18T12:22:41.240Z,2692
2016-09-18T12:23:40.845Z,2860
2016-09-18T12:24:41.624Z,3288
2016-09-18T12:25:41.036Z,3800
2016-09-18T12:26:41.336Z,4880
2016-09-18T12:27:41.253Z,5152
2016-09-18T12:28:41.211Z,4528
2016-09-18T12:29:41.101Z,3532
2016-09-18T12:30:41.134Z,3188
2016-09-18T12:31:41.000Z,2944
2016-09-18T12:32:40.745Z,2688
2016-09-18T12:33:41.028Z,2564
2016-09-18T12:34:40.973Z,2512
2016-09-18T12:35:41.720Z,2540
2016-09-18T12:36:40.541Z,2580
2016-09-18T12:37:40.502Z,2572
2016-09-18T12:38:40.763Z,2612
2016-09-18T12:39:40.707Z,2536
2016-09-18T12:40:40.414Z,2480
2016-09-18T12:41:40.837Z,2484
2016-09-18T12:42:40.868Z,2652
2016-09-18T12:43:40.542Z,2924
2016-09-18T12:44:40.591Z,3136
2016-09-18T12:45:40.438Z,3108
2016-09-18T12:46:40.399Z,3576
2016-09-18T12:47:40.243Z,2448
2016-09-18T12:48:40.317Z,2184
2016-09-18T12:49:40.167Z,1968
2016-09-18T12:50:39.835Z,1908
2016-09-18T12:51:40.066Z,2052
2016-09-18T12:52:40.137Z,2192
2016-09-18T12:53:40.082Z,2200
2016-09-18T12:54:40.094Z,2192
2016-09-18T12:55:39.992Z,2220
2016-09-18T12:56:39.970Z,2292
2016-09-18T12:57:40.103Z,2404
2016-09-18T12:58:39.904Z,2476
2016-09-18T12:59:40.217Z,2584
2016-09-18T13:00:40.654Z,2776
2016-09-18T13:01:39.794Z,3044
2016-09-18T13:02:39.911Z,3492
2016-09-18T13:03:40.394Z,3724
2016-09-18T13:04:41.709Z,2896
2016-09-18T13:05:39.551Z,2636
2016-09-18T13:06:39.375Z,2700
2016-09-18T13:07:39.452Z,2980
2016-09-18T13:08:39.416Z,3040
2016-09-18T13:09:39.545Z,2880
2016-09-18T13:10:39.345Z,2416
2016-09-18T13:11:39.328Z,2280
2016-09-18T13:12:39.277Z,2268
2016-09-18T13:13:39.591Z,2252
2016-09-18T13:14:39.161Z,2036
2016-09-18T13:15:39.499Z,1796
2016-09-18T13:16:39.266Z,1672
2016-09-18T13:17:38.716Z,1620
2016-09-18T13:18:45.127Z,1688
2016-09-18T13:19:39.214Z,1916
2016-09-18T13:20:39.313Z,2340
2016-09-18T13:21:38.880Z,2704
2016-09-18T13:22:38.778Z,4136
2016-09-18T13:23:38.609Z,5032
2016-09-18T13:24:38.705Z,5068
2016-09-18T13:25:38.592Z,4484
2016-09-18T13:26:40.431Z,4832
2016-09-18T13:27:38.743Z,4768
2016-09-18T13:28:38.195Z,4536
2016-09-18T13:29:38.662Z,4284
2016-09-18T13:30:38.136Z,3384
2016-09-18T13:31:38.621Z,2284
2016-09-18T13:32:38.539Z,2164
2016-09-18T13:33:38.679Z,2064
2016-09-18T13:34:38.423Z,1932
2016-09-18T13:35:38.406Z,1912
2016-09-18T13:36:37.841Z,2132
2016-09-18T13:37:38.133Z,1620
2016-09-18T13:38:37.748Z,1832
2016-09-18T13:39:38.087Z,2688
2016-09-18T13:40:38.395Z,3828
2016-09-18T13:41:37.920Z,4100
2016-09-18T13:42:38.274Z,4104
2016-09-18T13:43:37.726Z,4396
2016-09-18T13:44:37.773Z,4548
2016-09-18T13:45:37.940Z,4680
2016-09-18T13:46:37.695Z,4872
2016-09-18T13:47:37.740Z,4836
2016-09-18T13:48:37.602Z,3616
2016-09-18T13:49:37.740Z,3800
2016-09-18T13:50:37.519Z,3020
2016-09-18T13:51:36.854Z,2916
2016-09-18T13:52:37.332Z,2612
2016-09-18T13:53:37.381Z,2476
2016-09-18T13:54:37.253Z,2532
2016-09-18T13:55:36.975Z,2220
2016-09-18T13:56:37.646Z,2216
2016-09-18T13:57:36.890Z,2784
2016-09-18T13:58:36.869Z,3044
2016-09-18T13:59:36.794Z,4760